Time;durP1;ratioP1;P1;durP2;ratioP2;P2;SDS_P1;SDS_P2;PMS_P1;PMS_P2;Temp;Humidity;BMP_temperature;BMP_pressure;BME280_temperature;BME280_humidity;BME280_pressure;Samples;Min_cycle;Max_cycle;Signal;HPM_P1;HPM_P2
2024/04/24 00:00:34;;;;;;;10.83;1.50;;;5.70;71.50;;;;;;5119961;27;37842;-82
2024/04/24 00:03:02;;;;;;;12.80;3.20;;;5.80;73.30;;;;;;5117459;27;37731;-82
2024/04/24 00:05:31;;;;;;;5.60;1.47;;;5.90;60.90;;;;;;5119083;27;49646;-81
2024/04/24 00:07:58;;;;;;;8.80;1.13;;;5.90;58.40;;;;;;5116250;27;38557;-82
2024/04/24 00:10:24;;;;;;;9.60;1.30;;;5.80;75.10;;;;;;5109121;27;37427;-81
2024/04/24 00:12:50;;;;;;;6.97;1.07;;;5.70;90.00;;;;;;5112904;27;38931;-82
2024/04/24 00:15:16;;;;;;;5.63;1.33;;;5.60;95.10;;;;;;5110905;27;38770;-82
2024/04/24 00:17:42;;;;;;;7.37;1.10;;;5.60;99.90;;;;;;5110745;27;38498;-81
2024/04/24 00:20:09;;;;;;;6.30;1.47;;;5.60;99.90;;;;;;5109486;27;37532;-81
2024/04/24 00:22:35;;;;;;;10.00;1.70;;;5.60;99.90;;;;;;5107137;27;40126;-81
2024/04/24 00:25:01;;;;;;;8.47;1.80;;;5.50;99.90;;;;;;5104008;27;39796;-81
2024/04/24 00:27:27;;;;;;;8.47;1.97;;;5.50;99.90;;;;;;5105891;27;39641;-80
2024/04/24 00:29:53;;;;;;;10.93;1.87;;;5.50;99.90;;;;;;5112447;27;37943;-81
2024/04/24 00:32:19;;;;;;;17.67;2.37;;;5.60;99.90;;;;;;5108886;27;38938;-81
2024/04/24 00:34:46;;;;;;;9.03;1.83;;;5.60;99.90;;;;;;5111047;27;38230;-81
2024/04/24 00:37:12;;;;;;;8.53;1.97;;;5.50;99.90;;;;;;5110130;27;39325;-81
2024/04/24 00:39:38;;;;;;;12.67;2.00;;;5.50;99.90;;;;;;5105871;27;37482;-81
2024/04/24 00:42:04;;;;;;;9.03;1.37;;;5.50;99.90;;;;;;5108273;27;38456;-81
2024/04/24 00:44:30;;;;;;;6.83;1.67;;;5.50;99.90;;;;;;5101287;27;38266;-81
2024/04/24 00:47:00;;;;;;;10.50;1.80;;;5.60;99.90;;;;;;5135461;27;36821;-81
2024/04/24 00:49:26;;;;;;;11.03;1.53;;;5.50;99.90;;;;;;5110400;27;37980;-80
2024/04/24 00:51:53;;;;;;;5.60;1.07;;;5.30;65.90;;;;;;5105702;27;37575;-81
2024/04/24 00:54:19;;;;;;;5.00;1.10;;;5.10;47.20;;;;;;5107584;27;38483;-81
2024/04/24 00:56:46;;;;;;;4.30;1.00;;;5.00;34.50;;;;;;5104159;27;38634;-81
2024/04/24 00:59:12;;;;;;;7.60;1.30;;;5.10;60.00;;;;;;5109438;27;36002;-81
2024/04/24 01:04:14;;;;;;;7.03;1.40;;;5.20;67.30;;;;;;5174911;22;20002;-79
2024/04/24 01:06:40;;;;;;;5.70;1.37;;;5.10;47.40;;;;;;5118495;27;37233;-79
2024/04/24 01:09:06;;;;;;;5.57;1.03;;;5.10;28.80;;;;;;5142820;27;37299;-78
2024/04/24 01:11:33;;;;;;;4.73;0.83;;;5.20;22.50;;;;;;5136841;27;37597;-78
2024/04/24 01:13:59;;;;;;;4.37;0.97;;;5.20;9.80;;;;;;5156697;27;36736;-80
2024/04/24 01:16:31;;;;;;;4.77;0.73;;;5.20;1.00;;;;;;5123671;27;36869;-80
2024/04/24 01:19:04;;;;;;;5.20;1.10;;;5.30;1.00;;;;;;5160226;27;37252;-80
2024/04/24 01:21:57;;;;;;;7.47;1.43;;;5.30;1.00;;;;;;5162839;27;47908;-79
2024/04/24 01:24:35;;;;;;;11.15;1.10;;;5.40;1.00;;;;;;5127935;27;37325;-79
2024/04/24 01:27:02;;;;;;;7.67;1.50;;;5.50;1.00;;;;;;5160567;27;38559;-79
2024/04/24 01:29:33;;;;;;;9.97;1.40;;;5.50;1.00;;;;;;5156905;27;35543;-80
2024/04/24 01:31:59;;;;;;;8.03;1.67;;;5.60;1.00;;;;;;5154976;27;36069;-78
2024/04/24 01:34:26;;;;;;;8.77;1.20;;;5.60;1.00;;;;;;5150628;27;37108;-78
2024/04/24 01:36:52;;;;;;;8.57;1.30;;;5.70;1.00;;;;;;5126246;27;37069;-80
2024/04/24 01:39:18;;;;;;;9.07;1.80;;;5.70;1.00;;;;;;5159057;27;37680;-79
2024/04/24 01:41:45;;;;;;;4.87;2.30;;;5.80;1.00;;;;;;5153454;27;38324;-80
2024/04/24 01:44:13;;;;;;;12.40;1.90;;;5.80;1.00;;;;;;5156009;27;38643;-80
2024/04/24 01:46:47;;;;;;;7.80;1.20;;;5.90;1.00;;;;;;5128231;27;38021;-79
2024/04/24 01:49:26;;;;;;;8.60;1.37;;;5.80;1.00;;;;;;5175712;27;37775;-80
2024/04/24 01:54:45;;;;;;;7.00;1.40;;;5.50;1.00;;;;;;5197945;27;20019;-79
2024/04/24 01:57:11;;;;;;;8.43;1.70;;;5.50;1.00;;;;;;5161440;27;36970;-80
2024/04/24 01:59:41;;;;;;;7.73;1.50;;;5.50;1.00;;;;;;5193157;27;35972;-79
2024/04/24 02:02:07;;;;;;;7.67;1.30;;;5.50;1.00;;;;;;5189014;27;39232;-79
2024/04/24 02:04:34;;;;;;;8.87;1.77;;;5.40;1.00;;;;;;5179480;27;38591;-80
2024/04/24 02:07:00;;;;;;;11.73;1.60;;;5.40;1.00;;;;;;5196055;27;36951;-79
2024/04/24 02:09:37;;;;;;;8.90;2.43;;;5.40;1.00;;;;;;5163994;27;37343;-79
2024/04/24 02:12:03;;;;;;;9.13;1.37;;;5.40;1.00;;;;;;5159524;27;38870;-79
2024/04/24 02:14:29;;;;;;;11.33;1.50;;;5.40;1.00;;;;;;5166294;27;37958;-79
2024/04/24 02:16:55;;;;;;;10.47;2.23;;;5.40;1.00;;;;;;5188460;27;37377;-78
2024/04/24 02:19:22;;;;;;;8.17;1.40;;;5.40;1.00;;;;;;5192744;27;39998;-79
2024/04/24 02:21:48;;;;;;;8.53;1.30;;;5.40;1.00;;;;;;5165065;27;38816;-79
2024/04/24 02:25:33;;;;;;;5.80;1.10;;;5.40;1.00;;;;;;5161144;27;37501;-78
2024/04/24 02:27:01;;;;;;;7.47;1.47;;;5.30;1.00;;;;;;5189642;27;38284;-79
2024/04/24 02:29:27;;;;;;;13.90;1.37;;;5.30;1.00;;;;;;5197804;27;37943;-79
2024/04/24 02:31:53;;;;;;;12.50;1.33;;;5.20;1.00;;;;;;5199791;27;37979;-79
2024/04/24 02:34:28;;;;;;;7.60;1.43;;;5.20;1.00;;;;;;5174874;27;36967;-79
2024/04/24 02:37:26;;;;;;;9.27;1.33;;;5.30;1.00;;;;;;5170858;27;38303;-80
2024/04/24 02:39:55;;;;;;;10.40;1.60;;;5.30;1.00;;;;;;5134538;27;47894;-80
2024/04/24 02:42:28;;;;;;;12.20;1.63;;;5.40;1.00;;;;;;5172987;27;36413;-80
2024/04/24 02:45:06;;;;;;;10.20;1.77;;;5.40;1.00;;;;;;5173218;27;38141;-79
2024/04/24 02:47:38;;;;;;;7.07;1.40;;;5.50;1.00;;;;;;5159429;27;49099;-80
2024/04/24 02:50:21;;;;;;;4.43;1.30;;;5.40;1.00;;;;;;5188449;27;38126;-81
2024/04/24 02:52:48;;;;;;;6.38;1.45;;;5.10;33.20;;;;;;5171189;27;39538;-82
2024/04/24 02:55:17;;;;;;;5.30;1.23;;;4.70;57.40;;;;;;5153478;27;38655;-82
2024/04/24 02:57:53;;;;;;;8.23;1.40;;;4.60;84.20;;;;;;5198634;27;38991;-81
2024/04/24 03:00:36;;;;;;;3.83;0.90;;;4.50;96.10;;;;;;5093088;27;37672;-81
2024/04/24 03:03:25;;;;;;;4.53;0.82;;;4.60;99.90;;;;;;5111628;27;48239;-81
2024/04/24 03:06:30;;;;;;;10.17;1.73;;;4.60;99.90;;;;;;5160192;27;49408;-81
2024/04/24 03:08:57;;;;;;;7.90;1.83;;;4.50;99.90;;;;;;5037330;28;48135;-81
2024/04/24 03:11:55;;;;;;;10.23;1.50;;;4.50;99.90;;;;;;5226774;22;37220;-80
2024/04/24 03:14:25;;;;;;;8.73;1.50;;;4.60;99.90;;;;;;5129596;27;38017;-80
2024/04/24 03:17:01;;;;;;;2.87;1.10;;;4.60;99.90;;;;;;5135394;27;37705;-79
2024/04/24 03:20:18;;;;;;;10.87;1.53;;;4.60;99.90;;;;;;5131212;27;48969;-79
2024/04/24 03:22:44;;;;;;;12.87;3.83;;;4.50;99.90;;;;;;5104795;27;47829;-81
2024/04/24 03:25:20;;;;;;;6.77;1.73;;;4.50;99.90;;;;;;5137027;27;39438;-79
2024/04/24 03:27:46;;;;;;;9.17;1.50;;;4.50;99.90;;;;;;5115340;27;37560;-79
2024/04/24 03:30:13;;;;;;;7.53;1.33;;;4.40;99.90;;;;;;5109339;28;37957;-81
2024/04/24 03:32:41;;;;;;;9.80;2.60;;;4.40;99.90;;;;;;5097711;28;36318;-81
2024/04/24 03:35:11;;;;;;;7.23;1.50;;;4.30;99.90;;;;;;5142441;27;38508;-81
2024/04/24 03:37:39;;;;;;;13.03;2.00;;;4.30;99.90;;;;;;5086715;28;37985;-80
2024/04/24 03:40:06;;;;;;;9.03;1.83;;;4.30;99.90;;;;;;5120336;27;36971;-80
2024/04/24 03:42:33;;;;;;;13.17;2.30;;;4.20;99.90;;;;;;5126347;27;49239;-81
2024/04/24 03:44:59;;;;;;;18.63;2.90;;;4.30;99.90;;;;;;5138218;27;40273;-80
2024/04/24 03:47:29;;;;;;;8.47;2.10;;;4.30;99.90;;;;;;5117797;28;38368;-80
2024/04/24 03:49:55;;;;;;;14.63;1.80;;;4.40;99.90;;;;;;5102302;28;37308;-80
2024/04/24 03:52:22;;;;;;;9.47;1.77;;;4.40;99.90;;;;;;5115217;28;36235;-80
2024/04/24 03:55:07;;;;;;;17.57;2.40;;;4.40;99.90;;;;;;5121171;28;39285;-79
2024/04/24 03:57:36;;;;;;;12.80;2.30;;;4.50;99.90;;;;;;5118169;28;49692;-80
2024/04/24 04:00:06;;;;;;;12.77;1.87;;;4.50;99.90;;;;;;5117725;27;37408;-80
2024/04/24 04:02:43;;;;;;;18.90;2.47;;;4.50;99.90;;;;;;5094768;28;36113;-81
2024/04/24 04:05:41;;;;;;;8.37;1.90;;;4.50;99.90;;;;;;5119829;27;38401;-79
2024/04/24 04:08:08;;;;;;;11.63;2.37;;;4.70;99.90;;;;;;5140794;27;37929;-79
2024/04/24 04:10:35;;;;;;;16.63;2.80;;;4.80;99.90;;;;;;5081402;28;39748;-81
2024/04/24 04:13:02;;;;;;;20.27;2.10;;;4.80;95.50;;;;;;5096342;27;37375;-81
2024/04/24 04:15:29;;;;;;;16.67;1.93;;;5.00;70.70;;;;;;5077751;28;47697;-79
2024/04/24 04:17:55;;;;;;;15.33;2.10;;;5.20;51.20;;;;;;5099076;28;37489;-80
2024/04/24 04:23:48;;;;;;;16.40;4.27;;;5.50;59.20;;;;;;5057778;28;49578;-80
2024/04/24 04:26:40;;;;;;;19.00;2.83;;;5.60;60.80;;;;;;5099439;28;39334;-81
2024/04/24 04:29:06;;;;;;;18.00;2.40;;;5.60;57.00;;;;;;5081864;28;37561;-77
2024/04/24 04:31:34;;;;;;;18.17;2.60;;;5.70;60.80;;;;;;5094179;28;39300;-79
2024/04/24 04:34:00;;;;;;;17.43;2.30;;;5.60;64.60;;;;;;5103488;28;37289;-80
2024/04/24 04:36:39;;;;;;;;;;;;;;;;;;;;;
2024/04/24 04:42:23;;;;;;;12.40;2.10;;;5.40;64.30;;;;;;5231380;22;20026;-81
2024/04/24 04:44:51;;;;;;;20.97;2.63;;;5.40;61.00;;;;;;5142823;27;36266;-80
2024/04/24 04:47:19;;;;;;;16.20;2.10;;;5.40;67.70;;;;;;5131445;27;38887;-79
2024/04/24 04:49:46;;;;;;;17.37;2.43;;;5.40;73.70;;;;;;5160126;27;38215;-79
2024/04/24 04:52:18;;;;;;;15.67;2.37;;;5.40;83.20;;;;;;5137224;27;20028;-80
2024/04/24 04:54:44;;;;;;;13.57;2.20;;;5.40;87.40;;;;;;5137279;27;37996;-79
2024/04/24 04:57:11;;;;;;;14.87;2.57;;;5.40;92.40;;;;;;5125611;27;38128;-79
2024/04/24 04:59:39;;;;;;;14.00;2.83;;;5.40;93.20;;;;;;5162810;27;39045;-80
2024/04/24 05:02:08;;;;;;;16.30;2.20;;;5.40;93.80;;;;;;5154270;27;38949;-80
2024/04/24 05:04:36;;;;;;;19.03;2.50;;;5.40;92.60;;;;;;5125462;27;37348;-78
2024/04/24 05:07:03;;;;;;;18.50;2.03;;;5.40;82.10;;;;;;5131889;27;37792;-80
2024/04/24 05:09:32;;;;;;;11.23;1.97;;;5.40;42.40;;;;;;5161083;27;39432;-79
2024/04/24 05:11:59;;;;;;;17.63;2.10;;;5.50;36.80;;;;;;5144522;27;37624;-79
2024/04/24 05:14:26;;;;;;;14.43;2.00;;;5.50;13.30;;;;;;5124165;27;36895;-80
2024/04/24 05:16:58;;;;;;;13.37;1.63;;;5.50;6.90;;;;;;5163247;27;39223;-80
2024/04/24 05:19:32;;;;;;;11.48;1.90;;;5.30;20.00;;;;;;5157371;27;37598;-79
2024/04/24 05:22:00;;;;;;;8.27;1.67;;;5.10;43.30;;;;;;5139743;27;38754;-80
2024/04/24 05:24:37;;;;;;;6.40;1.40;;;4.90;56.40;;;;;;5151094;27;36852;-78
2024/04/24 05:29:49;;;;;;;9.87;1.87;;;4.80;96.70;;;;;;5151766;27;39420;-80
2024/04/24 05:32:16;;;;;;;14.87;1.90;;;4.80;98.20;;;;;;5146052;27;36836;-79
2024/04/24 05:34:49;;;;;;;9.43;1.37;;;4.70;96.50;;;;;;5150392;27;38455;-79
2024/04/24 05:37:16;;;;;;;9.43;1.30;;;4.70;96.50;;;;;;5157206;27;38742;-81
2024/04/24 05:39:42;;;;;;;10.90;1.20;;;4.70;91.70;;;;;;5170950;27;37616;-80
2024/04/24 05:42:11;;;;;;;12.17;1.63;;;4.80;70.40;;;;;;5153527;27;39754;-80
2024/04/24 05:44:57;;;;;;;7.83;1.40;;;4.80;62.50;;;;;;5155246;27;38826;-79
2024/04/24 05:47:23;;;;;;;13.13;1.50;;;4.90;70.20;;;;;;5130383;27;37888;-80
2024/04/24 05:49:52;;;;;;;8.73;1.30;;;4.90;71.40;;;;;;5138382;27;37344;-80
2024/04/24 05:52:18;;;;;;;10.83;1.50;;;4.90;76.60;;;;;;5162482;27;36812;-79
2024/04/24 05:54:45;;;;;;;15.27;1.93;;;5.00;76.10;;;;;;5134813;27;36281;-79
2024/04/24 05:57:11;;;;;;;7.57;1.10;;;5.00;71.80;;;;;;5151386;27;38143;-79
2024/04/24 05:59:37;;;;;;;11.87;1.57;;;5.10;66.70;;;;;;5126786;27;37524;-79
2024/04/24 06:02:14;;;;;;;9.13;1.77;;;5.20;60.40;;;;;;5129178;27;37705;-79
2024/04/24 06:04:47;;;;;;;11.70;1.90;;;5.30;61.70;;;;;;5139704;27;36340;-80
2024/04/24 06:07:13;;;;;;;10.43;2.47;;;5.40;81.40;;;;;;5118485;27;37983;-79
2024/04/24 06:09:40;;;;;;;16.07;2.43;;;5.40;75.10;;;;;;5116364;27;37770;-77
2024/04/24 06:12:07;;;;;;;10.57;1.80;;;5.50;66.90;;;;;;5130102;27;37314;-79
2024/04/24 06:14:38;;;;;;;18.13;2.83;;;5.60;66.10;;;;;;5133315;27;36567;-79
2024/04/24 06:17:05;;;;;;;11.90;2.23;;;5.70;72.30;;;;;;5122250;27;38634;-78
2024/04/24 06:19:31;;;;;;;12.67;2.03;;;5.80;69.00;;;;;;5133288;27;38568;-78
2024/04/24 06:21:57;;;;;;;10.27;1.73;;;5.80;52.70;;;;;;5119140;27;38814;-79
2024/04/24 06:24:23;;;;;;;6.00;1.23;;;5.90;37.60;;;;;;5131216;27;37231;-79
2024/04/24 06:26:49;;;;;;;11.60;1.77;;;6.10;34.40;;;;;;5129493;27;39244;-78
2024/04/24 06:29:15;;;;;;;6.90;1.57;;;6.20;20.60;;;;;;5135126;27;38943;-77
2024/04/24 06:31:42;;;;;;;6.57;1.40;;;6.20;9.50;;;;;;5133577;27;39985;-78
2024/04/24 06:34:08;;;;;;;11.50;2.33;;;6.10;1.00;;;;;;5144685;27;36390;-78
2024/04/24 06:36:34;;;;;;;7.60;1.37;;;6.00;1.00;;;;;;5154937;27;39049;-78
2024/04/24 06:39:00;;;;;;;11.30;1.83;;;6.00;1.00;;;;;;5122429;27;37084;-78
2024/04/24 06:41:27;;;;;;;15.67;1.77;;;5.90;1.00;;;;;;5138782;27;47526;-77
2024/04/24 06:43:53;;;;;;;5.80;1.40;;;6.00;1.00;;;;;;5140788;27;37471;-78
2024/04/24 06:46:20;;;;;;;14.63;2.07;;;6.10;4.70;;;;;;5123483;27;39185;-77
2024/04/24 06:48:46;;;;;;;11.90;2.87;;;6.20;1.00;;;;;;5149285;27;36506;-78
2024/04/24 06:51:13;;;;;;;15.40;2.13;;;6.30;7.00;;;;;;5128275;27;38745;-78
2024/04/24 06:53:40;;;;;;;5.20;1.27;;;6.50;2.30;;;;;;5126694;27;37726;-78
2024/04/24 06:56:06;;;;;;;17.00;1.87;;;6.80;1.00;;;;;;5130593;27;38194;-78
2024/04/24 06:58:36;;;;;;;12.97;2.07;;;7.10;1.00;;;;;;5150058;27;39185;-79
2024/04/24 07:01:03;;;;;;;13.10;1.90;;;7.30;1.00;;;;;;5106205;27;39106;-79
2024/04/24 07:03:30;;;;;;;11.67;2.73;;;7.20;1.00;;;;;;5138780;27;37231;-79
2024/04/24 07:05:56;;;;;;;12.17;1.90;;;6.70;1.00;;;;;;5121837;27;37534;-78
2024/04/24 07:08:23;;;;;;;10.33;1.70;;;6.10;11.60;;;;;;5149310;27;38375;-76
2024/04/24 07:10:52;;;;;;;7.63;1.30;;;5.60;29.30;;;;;;5126699;27;38625;-78
2024/04/24 07:13:19;;;;;;;12.30;1.50;;;5.40;50.60;;;;;;5121123;27;37608;-79
2024/04/24 07:15:45;;;;;;;9.30;1.60;;;5.30;76.30;;;;;;5142531;27;39145;-78
2024/04/24 07:18:11;;;;;;;11.67;1.67;;;5.40;95.10;;;;;;5131463;27;36639;-77
2024/04/24 07:20:37;;;;;;;12.10;1.50;;;5.40;96.90;;;;;;5122878;27;39464;-78
2024/04/24 07:23:03;;;;;;;10.63;1.90;;;5.50;96.80;;;;;;5117856;27;35758;-78
2024/04/24 07:25:30;;;;;;;10.37;1.53;;;5.60;98.60;;;;;;5132058;27;37330;-78
2024/04/24 07:27:56;;;;;;;11.70;2.07;;;5.70;99.90;;;;;;5115579;27;38726;-78
2024/04/24 07:30:22;;;;;;;7.33;1.73;;;5.90;99.90;;;;;;5119492;27;38011;-79
2024/04/24 07:32:49;;;;;;;12.77;1.63;;;6.10;99.90;;;;;;5123121;27;36185;-79
2024/04/24 07:35:15;;;;;;;11.93;2.30;;;6.10;99.90;;;;;;5142002;27;40182;-78
2024/04/24 07:37:41;;;;;;;12.50;1.67;;;6.20;99.80;;;;;;5119040;27;37045;-79
2024/04/24 07:40:08;;;;;;;10.40;1.97;;;6.50;99.90;;;;;;5148074;27;38798;-80
2024/04/24 07:42:35;;;;;;;10.53;2.33;;;7.00;99.90;;;;;;5149413;27;36852;-81
2024/04/24 07:45:02;;;;;;;13.23;2.67;;;7.70;99.90;;;;;;5123602;27;37676;-80
2024/04/24 07:47:29;;;;;;;15.10;2.63;;;8.30;73.60;;;;;;5118050;27;37568;-81
2024/04/24 07:49:56;;;;;;;12.03;2.10;;;8.60;27.70;;;;;;5152225;27;37916;-81
2024/04/24 07:52:22;;;;;;;14.67;2.20;;;9.00;1.00;;;;;;5128282;27;36087;-82
2024/04/24 07:54:48;;;;;;;17.17;2.90;;;8.70;1.00;;;;;;5148546;27;38621;-81
2024/04/24 07:57:14;;;;;;;13.63;3.20;;;8.50;1.00;;;;;;5113466;27;36654;-81
2024/04/24 07:59:43;;;;;;;13.70;2.53;;;8.50;1.00;;;;;;5145684;27;38457;-82
2024/04/24 08:02:11;;;;;;;10.80;2.13;;;8.70;1.00;;;;;;5126764;27;35814;-80
2024/04/24 08:04:37;;;;;;;13.07;2.27;;;9.10;1.00;;;;;;5163325;27;39351;-81
2024/04/24 08:07:04;;;;;;;15.20;2.03;;;9.30;1.00;;;;;;5137774;27;37697;-81
2024/04/24 08:09:30;;;;;;;14.20;2.22;;;9.20;1.00;;;;;;5114224;27;39477;-81
2024/04/24 08:11:57;;;;;;;10.60;2.60;;;8.80;1.00;;;;;;5168931;27;37666;-81
2024/04/24 08:14:23;;;;;;;13.10;2.30;;;8.50;1.00;;;;;;5141443;27;38643;-81
2024/04/24 08:16:49;;;;;;;16.23;2.50;;;8.20;1.00;;;;;;5125394;27;36414;-81
2024/04/24 08:19:15;;;;;;;19.33;2.80;;;8.10;1.00;;;;;;5169361;27;38256;-81
2024/04/24 08:21:51;;;;;;;17.67;2.13;;;8.00;1.00;;;;;;5125404;27;36071;-80
2024/04/24 08:24:35;;;;;;;16.37;2.10;;;7.70;1.00;;;;;;5148553;27;38381;-80
2024/04/24 08:27:11;;;;;;;10.90;2.13;;;7.80;1.00;;;;;;5144544;27;38871;-81
2024/04/24 08:29:56;;;;;;;16.47;2.37;;;7.80;1.00;;;;;;5140548;27;50268;-80
2024/04/24 08:32:23;;;;;;;14.30;2.90;;;8.10;1.00;;;;;;5159086;27;37873;-80
2024/04/24 08:34:49;;;;;;;16.43;2.63;;;8.10;1.00;;;;;;5166240;27;37736;-80
2024/04/24 08:37:15;;;;;;;15.83;3.77;;;7.90;1.00;;;;;;5129304;27;37400;-80
2024/04/24 08:39:47;;;;;;;11.17;2.40;;;7.90;1.00;;;;;;5171845;27;37969;-80
2024/04/24 08:42:19;;;;;;;14.27;2.00;;;8.00;1.00;;;;;;5133232;27;37303;-79
2024/04/24 08:44:47;;;;;;;11.50;1.67;;;8.40;1.00;;;;;;5107401;28;38848;-81
2024/04/24 08:47:18;;;;;;;11.73;2.27;;;8.90;1.00;;;;;;5123221;27;38839;-81
2024/04/24 08:49:52;;;;;;;15.57;2.90;;;9.10;99.90;;;;;;5131416;27;38268;-81
2024/04/24 08:52:27;;;;;;;12.70;2.30;;;9.20;99.90;;;;;;5152113;27;38848;-80
2024/04/24 08:54:58;;;;;;;14.27;2.40;;;9.40;1.00;;;;;;5138775;27;38241;-80
2024/04/24 08:57:28;;;;;;;17.98;2.25;;;9.70;1.00;;;;;;5114916;27;37960;-80
2024/04/24 09:00:01;;;;;;;14.63;2.23;;;10.10;1.00;;;;;;5144194;27;38831;-80
2024/04/24 09:02:36;;;;;;;7.03;1.45;;;10.40;1.00;;;;;;5159068;27;37473;-80
2024/04/24 09:05:06;;;;;;;12.27;2.33;;;10.30;1.00;;;;;;5159437;27;37317;-81
2024/04/24 09:07:35;;;;;;;14.82;2.45;;;10.30;99.90;;;;;;5139857;27;49796;-81
2024/04/24 09:10:06;;;;;;;11.98;1.83;;;10.10;1.00;;;;;;5154942;27;38545;-82
2024/04/24 09:12:35;;;;;;;16.17;3.10;;;9.60;99.90;;;;;;5146970;27;49420;-80
2024/04/24 09:15:04;;;;;;;14.18;2.38;;;9.20;99.90;;;;;;5147438;27;38259;-81
2024/04/24 09:17:34;;;;;;;11.10;1.93;;;9.00;1.00;;;;;;5137420;27;39072;-80
2024/04/24 09:20:00;;;;;;;8.17;1.37;;;8.70;1.00;;;;;;5164390;27;40270;-81
2024/04/24 09:22:27;;;;;;;13.47;2.10;;;8.50;1.00;;;;;;5140166;27;36435;-81
2024/04/24 09:24:56;;;;;;;8.50;1.50;;;8.40;99.90;;;;;;5139922;27;37454;-81
2024/04/24 09:27:26;;;;;;;18.77;2.97;;;8.40;1.00;;;;;;5152878;27;38834;-79
2024/04/24 09:29:52;;;;;;;12.23;2.13;;;8.70;1.00;;;;;;5133152;27;37233;-81
2024/04/24 09:32:18;;;;;;;8.07;2.17;;;9.30;1.00;;;;;;5138784;27;37568;-81
2024/04/24 09:34:52;;;;;;;14.17;1.90;;;9.60;1.00;;;;;;5157885;27;39409;-80
2024/04/24 09:37:18;;;;;;;12.87;2.03;;;9.00;1.00;;;;;;5152964;27;38281;-80
2024/04/24 09:39:44;;;;;;;7.30;1.70;;;9.10;1.00;;;;;;5153173;27;37807;-80
2024/04/24 09:42:11;;;;;;;12.97;1.53;;;9.40;1.00;;;;;;5135337;27;36548;-80
2024/04/24 09:44:46;;;;;;;10.23;1.95;;;9.70;1.00;;;;;;5151934;27;37908;-80
2024/04/24 09:47:13;;;;;;;14.50;1.77;;;9.60;1.00;;;;;;5141276;27;38548;-80
2024/04/24 09:49:43;;;;;;;10.82;1.73;;;9.50;1.00;;;;;;5158311;27;39005;-80
2024/04/24 09:52:16;;;;;;;11.60;2.03;;;9.20;1.00;;;;;;5147375;27;36383;-80
2024/04/24 09:54:42;;;;;;;8.65;1.48;;;8.90;1.00;;;;;;5123011;27;37794;-81
2024/04/24 09:57:11;;;;;;;8.23;1.70;;;8.70;1.00;;;;;;5160256;27;38834;-81
2024/04/24 09:59:52;;;;;;;10.55;1.95;;;9.40;1.00;;;;;;5150805;27;39578;-81
2024/04/24 10:02:25;;;;;;;12.02;1.60;;;9.40;99.90;;;;;;5148711;27;36539;-81
2024/04/24 10:04:57;;;;;;;9.15;1.52;;;9.40;1.00;;;;;;5136311;27;37193;-81
2024/04/24 10:07:25;;;;;;;4.45;1.30;;;9.50;1.00;;;;;;5129510;27;38937;-81
2024/04/24 10:09:53;;;;;;;7.25;1.42;;;9.30;1.00;;;;;;5138775;27;37890;-82
2024/04/24 10:12:32;;;;;;;9.48;1.38;;;9.50;1.00;;;;;;5134903;27;36059;-81
2024/04/24 10:15:19;;;;;;;15.10;2.72;;;10.00;1.00;;;;;;5162597;27;40212;-79
2024/04/24 10:17:48;;;;;;;3.58;1.10;;;10.30;99.90;;;;;;5158574;27;50546;-79
2024/04/24 10:20:15;;;;;;;8.00;1.40;;;10.20;1.00;;;;;;5149025;27;36908;-81
2024/04/24 10:22:49;;;;;;;7.15;1.58;;;10.10;99.90;;;;;;5145057;27;35782;-81
2024/04/24 10:25:17;;;;;;;6.45;1.20;;;9.80;99.90;;;;;;5107456;27;39258;-81
2024/04/24 10:27:48;;;;;;;12.63;1.92;;;9.30;1.00;;;;;;5144003;27;36850;-80
2024/04/24 10:30:16;;;;;;;8.10;1.73;;;8.20;1.00;;;;;;5123621;27;36583;-80
2024/04/24 10:32:42;;;;;;;8.57;1.30;;;7.20;1.00;;;;;;5136789;27;35899;-79
2024/04/24 10:35:13;;;;;;;13.40;1.40;;;6.70;1.00;;;;;;5149268;27;39323;-78
2024/04/24 10:37:39;;;;;;;9.77;1.53;;;6.30;1.00;;;;;;5105831;27;38286;-79
2024/04/24 10:40:16;;;;;;;5.33;1.57;;;6.30;33.60;;;;;;5109362;27;36286;-78
2024/04/24 10:42:44;;;;;;;6.50;1.40;;;6.30;38.40;;;;;;5135143;27;34404;-78
2024/04/24 10:45:17;;;;;;;7.90;1.20;;;6.20;57.20;;;;;;5104448;27;37739;-79
2024/04/24 10:47:43;;;;;;;5.03;1.50;;;6.10;68.40;;;;;;5159225;27;38608;-78
2024/04/24 10:50:16;;;;;;;7.53;1.93;;;6.10;61.60;;;;;;5128080;27;36931;-78
2024/04/24 10:52:47;;;;;;;11.32;1.58;;;6.00;62.40;;;;;;5124327;27;37550;-78
2024/04/24 10:55:18;;;;;;;8.03;1.53;;;6.20;88.80;;;;;;5135353;27;37526;-79
2024/04/24 10:57:48;;;;;;;9.57;1.77;;;6.30;94.90;;;;;;5150151;27;39168;-77
2024/04/24 11:00:18;;;;;;;11.73;1.90;;;6.30;92.80;;;;;;5135585;27;36963;-78
2024/04/24 11:02:47;;;;;;;14.07;2.20;;;6.40;97.90;;;;;;5154812;27;37639;-78
2024/04/24 11:05:18;;;;;;;7.53;1.93;;;6.40;96.60;;;;;;5113182;27;39485;-79
2024/04/24 11:07:55;;;;;;;9.57;1.70;;;6.40;97.10;;;;;;5145833;27;38480;-78
2024/04/24 11:10:21;;;;;;;9.90;2.10;;;6.50;95.30;;;;;;5138264;27;36790;-80
2024/04/24 11:12:53;;;;;;;9.60;1.87;;;6.60;98.50;;;;;;5156054;27;39584;-80
2024/04/24 11:15:25;;;;;;;8.57;1.80;;;6.90;99.90;;;;;;5127246;27;37512;-78
2024/04/24 11:17:53;;;;;;;12.10;2.60;;;7.30;99.90;;;;;;5122677;27;38922;-80
2024/04/24 11:20:22;;;;;;;8.33;2.23;;;7.70;99.90;;;;;;5165000;27;37371;-80
2024/04/24 11:22:49;;;;;;;14.67;2.00;;;8.10;99.90;;;;;;5166287;27;37550;-80
2024/04/24 11:25:17;;;;;;;8.67;1.80;;;8.70;99.90;;;;;;5138863;27;37890;-81
2024/04/24 11:27:47;;;;;;;14.80;3.13;;;9.10;99.90;;;;;;5145911;27;38779;-81
2024/04/24 11:30:18;;;;;;;8.75;2.00;;;9.50;92.80;;;;;;5158685;27;38372;-81
2024/04/24 11:33:15;;;;;;;11.43;2.13;;;9.60;28.20;;;;;;5143332;27;38848;-80
2024/04/24 11:35:48;;;;;;;15.95;2.60;;;9.30;8.70;;;;;;5121842;27;49326;-82
2024/04/24 11:38:14;;;;;;;9.90;2.37;;;9.20;19.00;;;;;;5158865;27;37357;-80
2024/04/24 11:40:41;;;;;;;12.57;2.38;;;9.40;16.40;;;;;;5138771;27;38416;-81
2024/04/24 11:43:34;;;;;;;12.27;2.20;;;9.40;1.00;;;;;;5144758;27;36524;-81
2024/04/24 11:46:09;;;;;;;;;;;9.70;1.00;;;;;;5149908;27;38763;-81
2024/04/24 11:48:38;;;;;;;13.60;2.40;;;9.70;1.00;;;;;;5140302;27;49171;-80
2024/04/24 11:51:05;;;;;;;12.90;1.95;;;9.70;1.00;;;;;;5168644;27;37792;-79
2024/04/24 11:53:31;;;;;;;12.10;2.30;;;10.00;1.00;;;;;;5140729;27;36516;-81
2024/04/24 11:56:09;;;;;;;9.35;1.73;;;10.10;1.00;;;;;;5156328;27;38487;-81
2024/04/24 11:58:53;;;;;;;16.48;2.63;;;10.40;1.00;;;;;;5151225;27;50441;-81
2024/04/24 12:01:23;;;;;;;12.40;2.10;;;10.50;1.00;;;;;;5131383;27;37483;-82
2024/04/24 12:04:13;;;;;;;11.15;1.92;;;10.20;1.00;;;;;;5180886;27;38616;-82
2024/04/24 12:07:28;;;;;;;13.40;1.85;;;9.60;1.00;;;;;;5157020;27;49412;-81
2024/04/24 12:10:28;;;;;;;9.32;3.05;;;9.50;1.00;;;;;;5115175;27;48668;-80
2024/04/24 12:13:18;;;;;;;12.40;2.83;;;9.60;1.00;;;;;;5156222;27;39013;-82
2024/04/24 12:16:07;;;;;;;14.40;1.92;;;10.00;1.00;;;;;;5135115;27;37416;-81
2024/04/24 12:19:06;;;;;;;13.93;2.33;;;10.10;1.00;;;;;;5133354;27;42441;-80
2024/04/24 12:21:47;;;;;;;14.70;1.70;;;10.10;1.00;;;;;;5090689;27;38659;-81
2024/04/24 12:24:15;;;;;;;17.10;2.13;;;10.20;1.00;;;;;;5134992;27;37785;-81
2024/04/24 12:26:49;;;;;;;16.30;2.55;;;10.20;99.90;;;;;;5163910;27;38564;-81
2024/04/24 12:29:20;;;;;;;11.05;2.28;;;10.30;99.90;;;;;;5142383;27;40337;-80
2024/04/24 12:31:56;;;;;;;15.00;2.25;;;10.70;99.90;;;;;;5120802;27;38061;-81
2024/04/24 12:34:24;;;;;;;14.10;2.45;;;10.80;80.70;;;;;;5317366;22;38040;-80
2024/04/24 12:37:09;;;;;;;19.73;2.83;;;11.10;99.90;;;;;;5109967;27;37379;-79
2024/04/24 12:39:43;;;;;;;16.60;2.45;;;10.70;1.00;;;;;;5099671;28;50439;-80
2024/04/24 12:42:47;;;;;;;19.30;3.20;;;9.80;1.00;;;;;;5111098;27;39008;-82
2024/04/24 12:45:56;;;;;;;14.48;2.80;;;9.10;1.00;;;;;;5096089;28;38995;-81
2024/04/24 12:48:28;;;;;;;22.15;2.67;;;8.80;1.00;;;;;;5139385;27;38750;-80
2024/04/24 12:50:54;;;;;;;17.37;2.30;;;8.50;1.00;;;;;;5084758;28;37385;-80
2024/04/24 12:53:33;;;;;;;16.23;2.37;;;8.80;1.00;;;;;;5115097;27;38392;-81
2024/04/24 12:56:04;;;;;;;13.85;2.10;;;9.00;1.00;;;;;;5127281;27;39611;-81
2024/04/24 12:58:51;;;;;;;16.40;2.72;;;9.50;1.00;;;;;;5108793;27;46990;-81
2024/04/24 13:01:21;;;;;;;11.00;2.03;;;9.80;1.00;;;;;;5122338;27;39463;-81
2024/04/24 13:03:54;;;;;;;9.80;2.05;;;10.30;1.00;;;;;;5113874;27;37109;-81
2024/04/24 13:06:26;;;;;;;19.13;2.88;;;10.60;1.00;;;;;;5120236;27;39279;-80
2024/04/24 13:08:54;;;;;;;;;;;10.40;35.20;;;;;;5115326;27;37229;-81
2024/04/24 13:11:36;;;;;;;15.23;2.63;;;10.20;85.20;;;;;;5143697;27;39536;-81
2024/04/24 13:14:06;;;;;;;12.95;2.10;;;10.10;99.90;;;;;;5123444;27;38323;-81
2024/04/24 13:16:41;;;;;;;11.93;2.25;;;10.30;99.90;;;;;;5117440;28;37530;-82
2024/04/24 13:19:42;;;;;;;10.73;1.90;;;10.50;1.00;;;;;;5100329;27;38849;-81
2024/04/24 13:22:16;;;;;;;11.13;2.08;;;10.70;1.00;;;;;;5067431;28;37773;-81
2024/04/24 13:25:00;;;;;;;10.52;1.90;;;11.00;1.00;;;;;;5101155;27;38521;-81
2024/04/24 13:28:18;;;;;;;11.02;1.77;;;11.00;1.00;;;;;;5138322;27;37110;-82
2024/04/24 13:30:46;;;;;;;11.48;1.75;;;11.10;1.00;;;;;;5120748;27;47857;-78